Time;durP1;ratioP1;P1;durP2;ratioP2;P2;SDS_P1;SDS_P2;PMS_P1;PMS_P2;Temp;Humidity;BMP_temperature;BMP_pressure;BME280_temperature;BME280_humidity;BME280_pressure;Samples;Min_cycle;Max_cycle;Signal;HPM_P1;HPM_P2
2022/10/06 00:01:08;;;;;;;11.70;7.50;;;;;;;;;;4334395;33;20223;-88
2022/10/06 00:03:37;;;;;;;13.63;6.73;;;;;;;;;;4334162;33;20246;-86
2022/10/06 00:06:05;;;;;;;9.30;6.00;;;;;;;;;;4334280;33;20204;-85
2022/10/06 00:08:34;;;;;;;14.17;6.87;;;;;;;;;;4334146;33;20282;-86
2022/10/06 00:11:01;;;;;;;13.20;6.07;;;;;;;;;;4334600;33;20199;-86
2022/10/06 00:13:30;;;;;;;11.20;6.30;;;;;;;;;;4334187;33;20223;-86
2022/10/06 00:15:57;;;;;;;13.97;7.20;;;;;;;;;;4334067;33;20312;-86
2022/10/06 00:18:24;;;;;;;10.03;6.30;;;;;;;;;;4334671;33;20269;-85
2022/10/06 00:20:57;;;;;;;15.43;6.87;;;;;;;;;;4334653;33;20221;-87
2022/10/06 00:23:24;;;;;;;14.13;6.43;;;;;;;;;;4333708;33;20281;-87
2022/10/06 00:25:51;;;;;;;13.00;6.80;;;;;;;;;;4334237;33;20211;-86
2022/10/06 00:28:17;;;;;;;11.67;6.07;;;;;;;;;;4333723;33;20655;-86
2022/10/06 00:30:45;;;;;;;18.63;7.20;;;;;;;;;;4334029;33;20252;-87
2022/10/06 00:33:14;;;;;;;12.20;5.70;;;;;;;;;;4334483;33;20633;-86
2022/10/06 00:35:42;;;;;;;11.67;5.63;;;;;;;;;;4334209;33;20195;-86
2022/10/06 00:38:11;;;;;;;9.20;5.70;;;;;;;;;;4333821;33;20299;-86
2022/10/06 00:40:44;;;;;;;12.97;7.83;;;;;;;;;;4333589;33;20211;-87
2022/10/06 00:43:48;;;;;;;11.80;7.20;;;;;;;;;;4334085;33;20220;-86
2022/10/06 00:46:21;;;;;;;11.30;7.70;;;;;;;;;;4334032;33;20278;-87
2022/10/06 00:48:50;;;;;;;13.93;7.43;;;;;;;;;;4333528;33;20308;-87
2022/10/06 00:51:18;;;;;;;20.50;8.43;;;;;;;;;;4333414;33;20344;-86
2022/10/06 00:53:46;;;;;;;14.80;8.43;;;;;;;;;;4333412;33;20222;-86
2022/10/06 00:56:13;;;;;;;12.50;7.50;;;;;;;;;;4333691;33;20273;-86
2022/10/06 00:58:40;;;;;;;10.77;7.57;;;;;;;;;;4333199;33;20304;-86
2022/10/06 01:01:08;;;;;;;17.80;7.80;;;;;;;;;;4333192;33;20612;-87
2022/10/06 01:03:39;;;;;;;11.17;7.80;;;;;;;;;;4333622;33;20243;-87
2022/10/06 01:06:06;;;;;;;10.63;7.43;;;;;;;;;;4333237;33;20198;-87
2022/10/06 01:08:33;;;;;;;14.63;6.80;;;;;;;;;;4333368;33;20228;-86
2022/10/06 01:11:02;;;;;;;9.67;6.30;;;;;;;;;;4333705;33;20549;-87
2022/10/06 01:13:29;;;;;;;12.17;6.93;;;;;;;;;;4333307;33;20442;-85
2022/10/06 01:16:03;;;;;;;12.00;7.30;;;;;;;;;;4333834;33;20195;-85
2022/10/06 01:18:32;;;;;;;11.60;6.50;;;;;;;;;;4333343;33;20222;-86
2022/10/06 01:21:05;;;;;;;17.37;7.30;;;;;;;;;;4333123;33;20308;-86
2022/10/06 01:23:34;;;;;;;13.73;8.53;;;;;;;;;;4333222;33;20661;-85
2022/10/06 01:26:04;;;;;;;11.83;6.77;;;;;;;;;;4333434;33;20211;-85
2022/10/06 01:28:31;;;;;;;10.93;7.17;;;;;;;;;;4333023;33;20314;-85
2022/10/06 01:31:00;;;;;;;16.27;8.07;;;;;;;;;;4333327;33;20274;-86
2022/10/06 01:33:28;;;;;;;12.03;7.50;;;;;;;;;;4332766;33;20238;-86
2022/10/06 01:35:55;;;;;;;16.17;8.70;;;;;;;;;;4333399;33;20208;-87
2022/10/06 01:38:23;;;;;;;16.50;9.17;;;;;;;;;;4332795;33;20227;-86
2022/10/06 01:40:53;;;;;;;17.77;9.53;;;;;;;;;;4333176;33;20219;-86
2022/10/06 01:43:20;;;;;;;20.33;10.33;;;;;;;;;;4332921;33;20231;-86
2022/10/06 01:45:52;;;;;;;16.27;9.77;;;;;;;;;;4333130;33;20605;-86
2022/10/06 01:48:19;;;;;;;14.20;9.73;;;;;;;;;;4333400;33;20237;-86
2022/10/06 01:50:46;;;;;;;18.93;10.07;;;;;;;;;;4332793;33;20572;-87
2022/10/06 01:53:13;;;;;;;13.07;8.30;;;;;;;;;;4332498;33;20242;-86
2022/10/06 01:55:39;;;;;;;10.53;6.47;;;;;;;;;;4333139;33;20208;-87
2022/10/06 01:58:08;;;;;;;10.90;6.37;;;;;;;;;;4332458;33;20247;-86
2022/10/06 02:00:34;;;;;;;11.77;7.30;;;;;;;;;;4332507;33;20215;-86
2022/10/06 02:03:01;;;;;;;11.20;6.80;;;;;;;;;;4332966;33;20671;-85
2022/10/06 02:05:28;;;;;;;9.47;7.20;;;;;;;;;;4332788;33;20274;-85
2022/10/06 02:07:55;;;;;;;14.43;7.87;;;;;;;;;;4332878;33;20649;-86
2022/10/06 02:10:22;;;;;;;13.70;7.93;;;;;;;;;;4332836;33;20225;-86
2022/10/06 02:12:50;;;;;;;14.17;7.63;;;;;;;;;;4332278;33;20235;-86
2022/10/06 02:15:19;;;;;;;12.00;9.23;;;;;;;;;;4332776;33;20277;-86
2022/10/06 02:17:46;;;;;;;16.17;8.63;;;;;;;;;;4332308;33;20245;-86
2022/10/06 02:20:13;;;;;;;10.80;7.60;;;;;;;;;;4332902;33;20203;-86
2022/10/06 02:22:42;;;;;;;14.90;8.33;;;;;;;;;;4332860;33;20223;-86
2022/10/06 02:25:10;;;;;;;17.33;9.40;;;;;;;;;;4332240;33;20286;-86
2022/10/06 02:27:36;;;;;;;16.27;9.83;;;;;;;;;;4332892;33;20290;-86
2022/10/06 02:30:04;;;;;;;14.13;9.50;;;;;;;;;;4332727;33;20629;-87
2022/10/06 02:32:34;;;;;;;17.77;10.17;;;;;;;;;;4332685;33;20226;-86
2022/10/06 02:35:02;;;;;;;16.40;10.03;;;;;;;;;;4332999;33;20216;-86
2022/10/06 02:37:29;;;;;;;17.77;10.70;;;;;;;;;;4332346;33;20238;-86
2022/10/06 02:39:56;;;;;;;12.23;9.43;;;;;;;;;;4332753;33;20218;-87
2022/10/06 02:42:23;;;;;;;15.07;9.07;;;;;;;;;;4332264;33;20281;-85
2022/10/06 02:44:51;;;;;;;18.03;8.80;;;;;;;;;;4332793;33;20207;-85
2022/10/06 02:47:21;;;;;;;14.20;8.03;;;;;;;;;;4332595;33;20298;-85
2022/10/06 02:49:49;;;;;;;11.93;9.13;;;;;;;;;;4332755;33;20195;-86
2022/10/06 02:52:16;;;;;;;19.17;9.13;;;;;;;;;;4332699;33;20261;-85
2022/10/06 02:54:45;;;;;;;14.80;9.20;;;;;;;;;;4332677;33;20633;-86
2022/10/06 02:57:14;;;;;;;10.10;7.93;;;;;;;;;;4331832;33;20619;-86
2022/10/06 02:59:41;;;;;;;13.80;8.30;;;;;;;;;;4332417;33;20211;-86
2022/10/06 03:02:08;;;;;;;16.20;9.97;;;;;;;;;;4332357;33;20581;-86
2022/10/06 03:04:35;;;;;;;18.10;8.77;;;;;;;;;;4332661;33;20237;-87
2022/10/06 03:07:03;;;;;;;11.23;8.27;;;;;;;;;;4332892;33;20223;-86
2022/10/06 03:09:30;;;;;;;11.20;7.63;;;;;;;;;;4332576;33;20250;-86
2022/10/06 03:11:57;;;;;;;19.67;6.80;;;;;;;;;;4332294;33;20313;-87
2022/10/06 03:14:24;;;;;;;10.87;7.13;;;;;;;;;;4332285;33;20215;-87
2022/10/06 03:16:51;;;;;;;9.70;6.87;;;;;;;;;;4332289;33;20207;-87
2022/10/06 03:19:18;;;;;;;14.23;6.53;;;;;;;;;;4332521;33;20215;-87
2022/10/06 03:21:45;;;;;;;12.10;6.87;;;;;;;;;;4332150;33;20219;-86
2022/10/06 03:24:14;;;;;;;10.83;7.17;;;;;;;;;;4332306;33;20232;-86
2022/10/06 03:26:42;;;;;;;10.17;6.43;;;;;;;;;;4332319;33;20621;-86
2022/10/06 03:29:10;;;;;;;8.93;5.80;;;;;;;;;;4332481;33;20568;-87
2022/10/06 03:31:37;;;;;;;13.00;7.23;;;;;;;;;;4334959;33;20207;-87
2022/10/06 03:34:04;;;;;;;17.67;7.40;;;;;;;;;;4335309;33;20246;-85
2022/10/06 03:36:32;;;;;;;21.60;9.60;;;;;;;;;;4334452;33;20541;-86
2022/10/06 03:38:59;;;;;;;12.67;7.63;;;;;;;;;;4334952;33;20333;-86
2022/10/06 03:41:29;;;;;;;13.73;6.60;;;;;;;;;;4334860;33;20225;-86
2022/10/06 03:43:58;;;;;;;12.93;6.70;;;;;;;;;;4334918;33;20294;-86
2022/10/06 03:46:26;;;;;;;9.60;7.27;;;;;;;;;;4334906;33;20286;-85
2022/10/06 03:48:55;;;;;;;16.60;11.73;;;;;;;;;;4335239;33;20571;-86
2022/10/06 03:51:26;;;;;;;17.93;10.27;;;;;;;;;;4334317;33;20697;-86
2022/10/06 03:53:53;;;;;;;10.37;5.93;;;;;;;;;;4334644;33;20242;-85
2022/10/06 03:56:22;;;;;;;12.13;5.57;;;;;;;;;;4334717;33;20213;-87
2022/10/06 03:58:52;;;;;;;7.37;5.23;;;;;;;;;;4334731;33;20303;-87
2022/10/06 04:01:21;;;;;;;9.77;5.20;;;;;;;;;;4334131;33;20290;-87
2022/10/06 04:03:48;;;;;;;9.67;6.30;;;;;;;;;;4334001;33;20223;-86
2022/10/06 04:06:17;;;;;;;12.10;7.23;;;;;;;;;;4334519;33;20229;-86
2022/10/06 04:08:45;;;;;;;14.10;7.37;;;;;;;;;;4334076;33;20673;-87
2022/10/06 04:11:14;;;;;;;15.47;9.43;;;;;;;;;;4334416;33;20218;-86
2022/10/06 04:13:42;;;;;;;17.50;8.80;;;;;;;;;;4333903;33;20241;-87
2022/10/06 04:16:13;;;;;;;12.97;7.73;;;;;;;;;;4334349;33;20301;-87
2022/10/06 04:18:40;;;;;;;18.10;10.67;;;;;;;;;;4333753;33;20230;-87
2022/10/06 04:21:07;;;;;;;14.53;11.47;;;;;;;;;;4334372;33;20203;-87
2022/10/06 04:23:35;;;;;;;17.10;10.83;;;;;;;;;;4334456;33;20223;-87
2022/10/06 04:26:05;;;;;;;21.07;11.03;;;;;;;;;;4334305;33;20700;-87
2022/10/06 04:28:35;;;;;;;19.90;11.67;;;;;;;;;;4334331;33;20223;-86
2022/10/06 04:31:03;;;;;;;21.77;10.70;;;;;;;;;;4334134;33;20211;-87
2022/10/06 04:33:33;;;;;;;17.97;10.67;;;;;;;;;;4334010;33;20314;-86
2022/10/06 04:36:01;;;;;;;48.93;25.13;;;;;;;;;;4334066;33;20289;-87
2022/10/06 04:38:28;;;;;;;51.07;26.93;;;;;;;;;;4333917;33;20245;-87
2022/10/06 04:40:56;;;;;;;40.90;21.43;;;;;;;;;;4333837;33;20207;-86
2022/10/06 04:43:23;;;;;;;33.13;15.70;;;;;;;;;;4333292;33;20684;-88
2022/10/06 04:45:56;;;;;;;36.47;18.20;;;;;;;;;;4333672;33;20288;-88
2022/10/06 04:48:23;;;;;;;43.63;21.57;;;;;;;;;;4333534;33;20241;-86
2022/10/06 04:50:58;;;;;;;32.33;21.10;;;;;;;;;;4333795;33;20222;-86
2022/10/06 04:53:25;;;;;;;42.00;20.00;;;;;;;;;;4333694;33;20245;-86
2022/10/06 04:55:59;;;;;;;29.63;14.23;;;;;;;;;;4333357;33;20210;-87
2022/10/06 04:58:27;;;;;;;29.33;15.60;;;;;;;;;;4333398;33;20231;-87
2022/10/06 05:00:54;;;;;;;30.93;11.80;;;;;;;;;;4332692;33;20211;-86
2022/10/06 05:03:20;;;;;;;21.17;10.20;;;;;;;;;;4332842;33;20223;-87
2022/10/06 05:05:47;;;;;;;22.93;9.83;;;;;;;;;;4332906;33;20257;-87
2022/10/06 05:08:16;;;;;;;20.17;8.90;;;;;;;;;;4333134;33;20282;-87
2022/10/06 05:10:42;;;;;;;20.23;9.10;;;;;;;;;;4333318;33;20245;-88
2022/10/06 05:13:10;;;;;;;17.17;8.47;;;;;;;;;;4333174;33;20755;-87
2022/10/06 05:15:37;;;;;;;14.63;7.30;;;;;;;;;;4333235;33;20221;-87
2022/10/06 05:18:04;;;;;;;14.10;7.50;;;;;;;;;;4332976;33;20218;-86
2022/10/06 05:20:31;;;;;;;18.67;8.90;;;;;;;;;;4333606;33;20227;-86
2022/10/06 05:22:58;;;;;;;18.63;8.13;;;;;;;;;;4334660;33;20286;-86
2022/10/06 05:25:26;;;;;;;18.57;8.20;;;;;;;;;;4336713;33;20207;-87
2022/10/06 05:27:53;;;;;;;18.13;10.33;;;;;;;;;;4337842;33;20241;-87
2022/10/06 05:30:19;;;;;;;19.23;9.00;;;;;;;;;;4336373;33;20283;-86
2022/10/06 05:32:49;;;;;;;28.07;10.30;;;;;;;;;;4335822;33;20649;-87
2022/10/06 05:35:18;;;;;;;23.00;10.97;;;;;;;;;;4332835;33;20369;-86
2022/10/06 05:37:44;;;;;;;15.97;10.50;;;;;;;;;;4334076;33;20636;-86
2022/10/06 05:40:11;;;;;;;16.43;10.90;;;;;;;;;;4332694;33;20219;-86
2022/10/06 05:42:40;;;;;;;19.07;9.97;;;;;;;;;;4333139;33;20222;-88
2022/10/06 05:45:08;;;;;;;18.17;9.70;;;;;;;;;;4332552;33;20227;-88
2022/10/06 05:47:35;;;;;;;17.70;11.33;;;;;;;;;;4332647;33;20294;-87
2022/10/06 05:50:02;;;;;;;16.30;10.73;;;;;;;;;;4332679;33;20585;-87
2022/10/06 05:52:29;;;;;;;19.33;9.70;;;;;;;;;;4332521;33;20523;-87
2022/10/06 05:54:56;;;;;;;26.03;11.17;;;;;;;;;;4333057;33;20215;-87
2022/10/06 05:57:22;;;;;;;19.37;9.47;;;;;;;;;;4332929;33;20223;-88
2022/10/06 05:59:51;;;;;;;29.40;12.57;;;;;;;;;;4332389;33;20206;-87
2022/10/06 06:02:17;;;;;;;26.80;15.27;;;;;;;;;;4332439;33;20221;-87
2022/10/06 06:04:44;;;;;;;24.90;14.33;;;;;;;;;;4332539;33;20234;-87
2022/10/06 06:07:11;;;;;;;30.30;13.93;;;;;;;;;;4331898;33;20593;-87
2022/10/06 06:09:38;;;;;;;27.07;13.93;;;;;;;;;;4332887;33;20310;-86
2022/10/06 06:12:05;;;;;;;29.70;13.87;;;;;;;;;;4332374;33;20227;-87
2022/10/06 06:17:17;;;;;;;21.67;12.37;;;;;;;;;;4332410;33;20632;-87
2022/10/06 06:19:44;;;;;;;22.07;11.03;;;;;;;;;;4332656;33;20223;-87
2022/10/06 06:22:11;;;;;;;32.77;11.73;;;;;;;;;;4332787;33;20296;-87
2022/10/06 06:24:37;;;;;;;21.23;10.90;;;;;;;;;;4332244;33;20230;-88
2022/10/06 06:27:04;;;;;;;22.10;13.13;;;;;;;;;;4331837;33;20250;-86
2022/10/06 06:29:31;;;;;;;19.90;12.43;;;;;;;;;;4332006;33;20223;-86
2022/10/06 06:31:59;;;;;;;23.47;12.10;;;;;;;;;;4332027;33;20229;-87
2022/10/06 06:34:29;;;;;;;37.00;16.63;;;;;;;;;;4331858;33;20222;-87
2022/10/06 06:36:57;;;;;;;33.47;17.20;;;;;;;;;;4332140;33;20274;-87
2022/10/06 06:39:24;;;;;;;33.30;20.13;;;;;;;;;;4331953;33;20302;-86
2022/10/06 06:41:52;;;;;;;41.63;24.37;;;;;;;;;;4331927;33;20282;-87
2022/10/06 06:44:20;;;;;;;43.77;23.23;;;;;;;;;;4331582;33;20261;-87
2022/10/06 06:46:48;;;;;;;34.57;19.27;;;;;;;;;;4331505;33;20557;-86
2022/10/06 06:49:15;;;;;;;26.70;14.37;;;;;;;;;;4331826;33;20211;-86
2022/10/06 06:51:48;;;;;;;19.47;10.53;;;;;;;;;;4332037;33;20207;-86
2022/10/06 06:54:17;;;;;;;33.00;10.43;;;;;;;;;;4334121;33;20290;-87
2022/10/06 06:56:44;;;;;;;15.00;8.73;;;;;;;;;;4332203;33;20208;-86
2022/10/06 06:59:11;;;;;;;20.67;8.87;;;;;;;;;;4332085;33;20298;-88
2022/10/06 07:01:43;;;;;;;13.27;7.53;;;;;;;;;;4331589;33;20200;-87
2022/10/06 07:04:11;;;;;;;12.90;6.70;;;;;;;;;;4332266;33;20617;-86
2022/10/06 07:06:39;;;;;;;7.57;6.40;;;;;;;;;;4334845;33;20692;-85
2022/10/06 07:09:09;;;;;;;16.50;6.37;;;;;;;;;;4334894;33;20238;-86
2022/10/06 07:11:37;;;;;;;10.77;6.60;;;;;;;;;;4334808;33;20275;-87
2022/10/06 07:14:05;;;;;;;12.07;6.50;;;;;;;;;;4334757;33;20211;-87
2022/10/06 07:25:11;;;;;;;12.10;6.37;;;;;;;;;;4334553;33;20608;-86
2022/10/06 07:27:41;;;;;;;10.20;6.13;;;;;;;;;;4334755;33;20202;-86
2022/10/06 07:30:10;;;;;;;16.43;7.23;;;;;;;;;;4334464;33;20227;-86
2022/10/06 07:32:37;;;;;;;15.87;6.17;;;;;;;;;;4334494;33;20213;-88
2022/10/06 07:35:05;;;;;;;10.63;7.03;;;;;;;;;;4333738;33;20241;-87
2022/10/06 07:37:35;;;;;;;15.37;7.80;;;;;;;;;;4333963;33;20278;-87
2022/10/06 07:40:06;;;;;;;14.90;7.27;;;;;;;;;;4333666;33;20356;-87
2022/10/06 07:42:46;;;;;;;16.77;6.97;;;;;;;;;;4334302;33;20211;-87
2022/10/06 07:48:00;;;;;;;9.47;6.53;;;;;;;;;;4334175;33;20210;-86
2022/10/06 07:50:27;;;;;;;15.80;6.83;;;;;;;;;;4334447;33;20668;-87
2022/10/06 07:52:54;;;;;;;15.17;7.77;;;;;;;;;;4334721;33;20262;-87
2022/10/06 07:55:22;;;;;;;10.53;7.20;;;;;;;;;;4334505;33;20242;-87
2022/10/06 07:57:50;;;;;;;14.80;7.07;;;;;;;;;;4334565;33;20287;-87
2022/10/06 08:00:19;;;;;;;13.67;7.50;;;;;;;;;;4333982;33;20224;-87
2022/10/06 08:02:46;;;;;;;13.03;7.93;;;;;;;;;;4334267;33;20295;-87
2022/10/06 08:05:13;;;;;;;14.40;7.73;;;;;;;;;;4334366;33;20286;-88
2022/10/06 08:07:41;;;;;;;20.03;8.53;;;;;;;;;;4334247;33;20541;-88
2022/10/06 08:10:08;;;;;;;12.20;6.70;;;;;;;;;;4333614;33;20242;-87
2022/10/06 08:12:38;;;;;;;11.90;7.40;;;;;;;;;;4334362;33;20254;-87
2022/10/06 08:15:07;;;;;;;15.70;6.90;;;;;;;;;;4333363;33;20266;-87
2022/10/06 08:17:35;;;;;;;16.53;6.27;;;;;;;;;;4334013;33;20211;-88
2022/10/06 08:20:03;;;;;;;9.73;6.33;;;;;;;;;;4333522;33;20294;-89
2022/10/06 08:22:29;;;;;;;15.13;6.70;;;;;;;;;;4333596;33;20223;-87
2022/10/06 08:24:57;;;;;;;8.33;6.30;;;;;;;;;;4333230;33;20235;-86
2022/10/06 08:27:25;;;;;;;11.77;4.97;;;;;;;;;;4333639;33;20211;-87
2022/10/06 08:29:53;;;;;;;9.40;6.27;;;;;;;;;;4333257;33;20227;-88
2022/10/06 08:32:20;;;;;;;8.30;5.03;;;;;;;;;;4334075;33;20207;-88
2022/10/06 08:34:47;;;;;;;12.93;5.53;;;;;;;;;;4333526;33;20223;-88
2022/10/06 08:37:14;;;;;;;7.80;5.10;;;;;;;;;;4333374;33;20230;-88
2022/10/06 08:39:41;;;;;;;8.87;5.83;;;;;;;;;;4333183;33;20230;-86
2022/10/06 08:42:14;;;;;;;13.77;6.20;;;;;;;;;;4333734;33;20207;-87
2022/10/06 08:44:43;;;;;;;13.33;6.77;;;;;;;;;;4333079;33;20624;-87
2022/10/06 08:47:16;;;;;;;10.80;5.30;;;;;;;;;;4333280;33;20219;-87
2022/10/06 08:49:45;;;;;;;12.07;5.47;;;;;;;;;;4332796;33;20298;-87
2022/10/06 08:52:25;;;;;;;11.53;5.87;;;;;;;;;;4333174;33;20215;-88
2022/10/06 08:55:03;;;;;;;9.30;5.40;;;;;;;;;;4333312;33;20293;-87
2022/10/06 08:57:36;;;;;;;7.27;5.10;;;;;;;;;;4333312;33;20198;-87
2022/10/06 09:00:10;;;;;;;5.50;4.47;;;;;;;;;;4332945;33;20235;-89
2022/10/06 09:02:44;;;;;;;10.97;4.67;;;;;;;;;;4333497;33;20241;-87
2022/10/06 09:05:13;;;;;;;8.30;5.20;;;;;;;;;;4332960;33;20223;-88
2022/10/06 09:07:51;;;;;;;14.20;5.03;;;;;;;;;;4332747;33;20233;-87
2022/10/06 09:10:28;;;;;;;8.23;4.47;;;;;;;;;;4332485;33;20254;-87
2022/10/06 09:13:00;;;;;;;7.67;4.73;;;;;;;;;;4333139;33;20212;-89
2022/10/06 09:15:33;;;;;;;8.43;4.63;;;;;;;;;;4332815;33;20289;-86
2022/10/06 09:18:09;;;;;;;13.87;5.20;;;;;;;;;;4334321;33;20230;-89
2022/10/06 09:20:41;;;;;;;10.37;5.57;;;;;;;;;;4333318;33;20215;-90
2022/10/06 09:23:14;;;;;;;16.47;5.70;;;;;;;;;;4333311;33;20215;-88
2022/10/06 09:25:41;;;;;;;9.67;5.90;;;;;;;;;;4319645;33;20293;-88
2022/10/06 09:28:12;;;;;;;20.17;5.13;;;;;;;;;;4332274;33;20274;-88
2022/10/06 09:30:41;;;;;;;9.13;5.80;;;;;;;;;;4332242;33;20224;-87
2022/10/06 09:33:18;;;;;;;10.07;4.57;;;;;;;;;;4332591;33;20241;-89
2022/10/06 09:36:05;;;;;;;5.27;3.20;;;;;;;;;;4333221;33;20215;-88
2022/10/06 09:38:47;;;;;;;15.88;5.37;;;;;;;;;;4332587;33;20253;-89
2022/10/06 09:41:15;;;;;;;8.15;4.75;;;;;;;;;;4332465;33;20258;-87
2022/10/06 09:43:51;;;;;;;12.53;5.80;;;;;;;;;;4332753;33;20221;-88
2022/10/06 09:46:20;;;;;;;13.00;5.72;;;;;;;;;;4333054;33;20203;-89
2022/10/06 09:49:06;;;;;;;10.67;6.13;;;;;;;;;;4332339;33;20222;-88
2022/10/06 09:51:36;;;;;;;9.60;5.00;;;;;;;;;;4331927;33;20525;-88
2022/10/06 09:54:13;;;;;;;5.45;3.50;;;;;;;;;;4332538;33;20300;-88
2022/10/06 09:56:42;;;;;;;10.63;3.80;;;;;;;;;;4332448;33;20218;-89
2022/10/06 09:59:20;;;;;;;7.15;4.25;;;;;;;;;;4332281;33;20231;-87
2022/10/06 10:01:52;;;;;;;6.82;3.15;;;;;;;;;;4332033;33;20723;-89
2022/10/06 10:04:25;;;;;;;5.57;3.03;;;;;;;;;;4319354;33;20644;-90
2022/10/06 10:06:52;;;;;;;8.73;3.50;;;;;;;;;;4332136;33;20211;-90
2022/10/06 10:09:29;;;;;;;7.65;3.58;;;;;;;;;;4332214;33;20215;-88
2022/10/06 10:12:26;;;;;;;5.12;2.87;;;;;;;;;;4332131;33;20203;-88
2022/10/06 10:14:55;;;;;;;4.97;2.53;;;;;;;;;;4332421;33;20245;-88
2022/10/06 10:17:32;;;;;;;6.12;2.30;;;;;;;;;;4332290;33;20629;-89
2022/10/06 10:20:02;;;;;;;6.22;1.87;;;;;;;;;;4332878;33;20285;-89
2022/10/06 10:22:35;;;;;;;3.83;2.00;;;;;;;;;;4333152;33;20311;-90
2022/10/06 10:25:13;;;;;;;4.25;2.45;;;;;;;;;;4333982;33;20204;-89
2022/10/06 10:27:46;;;;;;;2.25;1.50;;;;;;;;;;4333764;33;20199;-89
2022/10/06 10:30:14;;;;;;;2.42;1.65;;;;;;;;;;4333072;33;20679;-89
2022/10/06 10:32:49;;;;;;;4.87;2.72;;;;;;;;;;4334671;33;20222;-89
2022/10/06 10:35:23;;;;;;;4.15;1.48;;;;;;;;;;4343046;33;20655;-88
2022/10/06 10:37:55;;;;;;;2.70;1.10;;;;;;;;;;4337977;33;20257;-87
2022/10/06 10:40:30;;;;;;;5.07;0.90;;;;;;;;;;4343267;33;20286;-87
2022/10/06 10:43:04;;;;;;;1.42;1.00;;;;;;;;;;4344148;33;20264;-88
2022/10/06 10:45:33;;;;;;;6.40;1.40;;;;;;;;;;4339709;33;20230;-89
2022/10/06 10:48:03;;;;;;;6.10;1.80;;;;;;;;;;4335359;33;20262;-89
2022/10/06 10:50:38;;;;;;;2.60;1.42;;;;;;;;;;4336107;33;20242;-88
2022/10/06 10:53:11;;;;;;;1.83;1.30;;;;;;;;;;4335947;33;20203;-89
2022/10/06 10:55:41;;;;;;;2.22;1.30;;;;;;;;;;4336190;33;20289;-90
2022/10/06 10:58:16;;;;;;;5.93;1.67;;;;;;;;;;4336033;33;20219;-88
2022/10/06 11:00:48;;;;;;;5.40;1.12;;;;;;;;;;4334721;33;20234;-89
2022/10/06 11:03:15;;;;;;;6.62;1.65;;;;;;;;;;4335699;33;20230;-89
2022/10/06 11:06:06;;;;;;;2.87;1.15;;;;;;;;;;4335258;33;20605;-89
2022/10/06 11:08:38;;;;;;;2.37;1.60;;;;;;;;;;4335003;33;20208;-89
2022/10/06 11:11:15;;;;;;;2.08;1.45;;;;;;;;;;4334500;33;20349;-89
2022/10/06 11:13:46;;;;;;;6.62;1.60;;;;;;;;;;4334982;33;20549;-89
2022/10/06 11:16:28;;;;;;;2.05;1.35;;;;;;;;;;4334816;33;20216;-90
2022/10/06 11:19:09;;;;;;;5.20;1.20;;;;;;;;;;4335383;33;20333;-89
2022/10/06 11:21:45;;;;;;;2.40;1.40;;;;;;;;;;4334565;33;20644;-90
2022/10/06 11:24:19;;;;;;;1.90;1.35;;;;;;;;;;4334615;33;20641;-90
2022/10/06 11:27:07;;;;;;;3.83;1.50;;;;;;;;;;4334606;33;20621;-90
2022/10/06 11:29:45;;;;;;;3.75;1.77;;;;;;;;;;4340105;33;20211;-90
2022/10/06 11:32:25;;;;;;;3.20;1.20;;;;;;;;;;4340889;33;20227;-91
2022/10/06 11:34:52;;;;;;;7.75;1.77;;;;;;;;;;4334589;33;20219;-88
2022/10/06 11:37:29;;;;;;;4.05;1.80;;;;;;;;;;4335097;33;20238;-88
2022/10/06 11:40:17;;;;;;;3.00;1.20;;;;;;;;;;4335390;33;20226;-89
2022/10/06 11:42:50;;;;;;;2.25;0.98;;;;;;;;;;4334948;33;20270;-89
2022/10/06 11:45:23;;;;;;;5.25;1.33;;;;;;;;;;4333737;33;20218;-90
2022/10/06 11:48:10;;;;;;;1.75;1.23;;;;;;;;;;4334327;33;20609;-90
2022/10/06 11:50:40;;;;;;;3.72;1.65;;;;;;;;;;4333934;33;20530;-89
2022/10/06 11:53:24;;;;;;;2.17;1.40;;;;;;;;;;4334025;33;20541;-90
2022/10/06 11:56:24;;;;;;;1.92;1.30;;;;;;;;;;4334027;33;20214;-90
2022/10/06 11:59:10;;;;;;;5.93;1.20;;;;;;;;;;4334166;33;20564;-90
2022/10/06 12:02:01;;;;;;;5.30;1.10;;;;;;;;;;4333896;33;20289;-89
2022/10/06 12:04:28;;;;;;;2.15;0.98;;;;;;;;;;4330635;33;20239;-90
2022/10/06 12:07:02;;;;;;;1.87;1.30;;;;;;;;;;4334101;33;20301;-89
2022/10/06 12:09:46;;;;;;;1.73;1.42;;;;;;;;;;4335366;33;20211;-89
2022/10/06 12:12:52;;;;;;;1.67;1.02;;;;;;;;;;4334170;33;20199;-90
2022/10/06 12:16:13;;;;;;;1.98;0.90;;;;;;;;;;4334015;33;20543;-90
2022/10/06 12:18:50;;;;;;;4.20;1.20;;;;;;;;;;4331162;33;20764;-89
2022/10/06 12:21:42;;;;;;;2.72;1.00;;;;;;;;;;4334078;33;20257;-89
2022/10/06 12:24:24;;;;;;;3.80;1.02;;;;;;;;;;4334211;33;20265;-90
2022/10/06 12:27:11;;;;;;;2.30;1.20;;;;;;;;;;4333970;33;20218;-90
2022/10/06 12:29:46;;;;;;;2.92;1.48;;;;;;;;;;4334329;33;20237;-90
2022/10/06 12:32:22;;;;;;;1.00;0.82;;;;;;;;;;4333741;33;20215;-89
2022/10/06 12:34:58;;;;;;;1.95;1.10;;;;;;;;;;4334239;33;20228;-89
2022/10/06 12:37:41;;;;;;;2.53;1.27;;;;;;;;;;4333916;33;20304;-89
2022/10/06 12:40:48;;;;;;;9.18;1.60;;;;;;;;;;4333730;33;20735;-89
2022/10/06 12:43:59;;;;;;;4.20;1.50;;;;;;;;;;4328019;33;20309;-89
2022/10/06 12:46:39;;;;;;;1.80;1.00;;;;;;;;;;4334110;33;20226;-91
2022/10/06 12:49:30;;;;;;;7.37;1.52;;;;;;;;;;4334392;33;20215;-89
2022/10/06 12:51:59;;;;;;;6.15;0.98;;;;;;;;;;4333951;33;20282;-89
2022/10/06 12:54:33;;;;;;;2.20;1.17;;;;;;;;;;4333856;33;20207;-89
2022/10/06 12:57:01;;;;;;;2.78;1.35;;;;;;;;;;4333839;33;20215;-89
2022/10/06 12:59:30;;;;;;;4.12;1.40;;;;;;;;;;4334134;33;20282;-90
2022/10/06 13:02:01;;;;;;;2.83;0.93;;;;;;;;;;4333373;33;20527;-90
2022/10/06 13:04:38;;;;;;;1.48;0.80;;;;;;;;;;4333867;33;20207;-90
2022/10/06 13:07:11;;;;;;;1.95;0.88;;;;;;;;;;4333802;33;20316;-90
2022/10/06 13:09:38;;;;;;;2.00;0.90;;;;;;;;;;4333848;33;20274;-90
2022/10/06 13:12:30;;;;;;;3.17;1.25;;;;;;;;;;4334073;33;20290;-89
2022/10/06 13:15:22;;;;;;;2.62;1.02;;;;;;;;;;4316439;33;20249;-90
2022/10/06 13:17:53;;;;;;;4.55;1.20;;;;;;;;;;4319180;33;20247;-90
2022/10/06 13:20:23;;;;;;;3.70;0.90;;;;;;;;;;4334144;33;20282;-91
2022/10/06 13:22:58;;;;;;;5.93;1.15;;;;;;;;;;4333538;33;20216;-90
2022/10/06 13:25:25;;;;;;;7.90;1.40;;;;;;;;;;4333868;33;20747;-90
2022/10/06 13:27:52;;;;;;;2.00;1.10;;;;;;;;;;4333489;33;20223;-90
2022/10/06 13:30:21;;;;;;;5.85;0.98;;;;;;;;;;4333841;33;20199;-90
2022/10/06 13:32:51;;;;;;;4.40;0.93;;;;;;;;;;4333339;33;20282;-91
2022/10/06 13:35:21;;;;;;;1.80;1.00;;;;;;;;;;4333253;33;20319;-91
2022/10/06 13:37:48;;;;;;;1.62;0.90;;;;;;;;;;4333124;33;20538;-91
2022/10/06 13:40:16;;;;;;;2.00;0.90;;;;;;;;;;4333053;33;20285;-92
2022/10/06 13:42:46;;;;;;;1.85;1.02;;;;;;;;;;4332625;33;20219;-90
2022/10/06 13:45:15;;;;;;;3.65;0.80;;;;;;;;;;4333230;33;20215;-89
2022/10/06 13:47:41;;;;;;;3.12;1.27;;;;;;;;;;4332881;33;20329;-90
2022/10/06 13:50:15;;;;;;;2.05;1.10;;;;;;;;;;4332825;33;20628;-89
2022/10/06 13:52:45;;;;;;;3.80;1.30;;;;;;;;;;4332540;33;20230;-90
2022/10/06 13:55:18;;;;;;;4.37;1.30;;;;;;;;;;4332912;33;20207;-91
2022/10/06 13:57:46;;;;;;;9.35;1.23;;;;;;;;;;4333221;33;20300;-90
2022/10/06 14:00:20;;;;;;;1.27;0.85;;;;;;;;;;4332761;33;20632;-90
2022/10/06 14:02:49;;;;;;;2.75;0.90;;;;;;;;;;4333190;33;20222;-92
2022/10/06 14:05:35;;;;;;;4.60;1.08;;;;;;;;;;4333245;33;20195;-89
2022/10/06 14:08:04;;;;;;;2.40;1.10;;;;;;;;;;4332581;33;20236;-90
2022/10/06 14:10:34;;;;;;;6.47;1.50;;;;;;;;;;4332555;33;20214;-90
2022/10/06 14:13:01;;;;;;;2.50;1.40;;;;;;;;;;4332294;33;20237;-90
2022/10/06 14:15:31;;;;;;;1.58;1.02;;;;;;;;;;4333250;33;20233;-90
2022/10/06 14:18:00;;;;;;;2.72;1.27;;;;;;;;;;4333302;33;20310;-90
2022/10/06 14:20:46;;;;;;;3.42;1.58;;;;;;;;;;4332397;33;20230;-91
2022/10/06 14:23:42;;;;;;;2.72;1.55;;;;;;;;;;4333095;33;20241;-88
2022/10/06 14:26:11;;;;;;;2.40;1.50;;;;;;;;;;4333432;33;20724;-89
2022/10/06 14:28:38;;;;;;;4.95;1.95;;;;;;;;;;4332987;33;20281;-90
2022/10/06 14:31:06;;;;;;;2.75;1.73;;;;;;;;;;4333976;33;20207;-89
2022/10/06 14:33:33;;;;;;;2.30;1.20;;;;;;;;;;4335281;33;20215;-90
2022/10/06 14:36:04;;;;;;;2.75;1.52;;;;;;;;;;4336651;33;20271;-90
2022/10/06 14:38:31;;;;;;;3.55;2.50;;;;;;;;;;4339656;33;20242;-89
2022/10/06 14:41:01;;;;;;;3.53;1.70;;;;;;;;;;4339440;33;20219;-89
2022/10/06 14:43:28;;;;;;;6.90;1.75;;;;;;;;;;4334924;33;20215;-88
2022/10/06 14:45:55;;;;;;;4.82;2.40;;;;;;;;;;4334221;33;20215;-89
2022/10/06 14:48:22;;;;;;;6.12;3.37;;;;;;;;;;4334214;33;20281;-89
2022/10/06 14:50:49;;;;;;;6.40;2.42;;;;;;;;;;4333480;33;20253;-88
2022/10/06 14:53:17;;;;;;;7.97;5.12;;;;;;;;;;4332993;33;20215;-90
2022/10/06 14:55:44;;;;;;;8.98;3.03;;;;;;;;;;4333432;33;20226;-90
2022/10/06 14:58:11;;;;;;;9.93;3.60;;;;;;;;;;4332898;33;20240;-90
2022/10/06 15:00:41;;;;;;;9.25;4.03;;;;;;;;;;4332552;33;20219;-89
2022/10/06 15:03:08;;;;;;;6.40;3.60;;;;;;;;;;4333315;33;20234;-89
2022/10/06 15:08:08;;;;;;;9.23;4.78;;;;;;;;;;4336394;33;20259;-88
2022/10/06 15:08:22;;;;;;;11.57;4.72;;;;;;;;;;4340925;33;20223;-86
2022/10/06 15:10:52;;;;;;;15.20;4.82;;;;;;;;;;4341917;33;20203;-88